Aérodrome :
LOGIN :

S'inscrire | Disclaimer

   EN    FR    IT 

 










Légende :    VFR   VFR Marginal   IFR   IFR Intensif   IFR Très Intensif
Visi : 
Plafond : 
>= 8 km
>= 3000ft
5 à 8 km
1000 à 3000 ft
1500m à 5 km
500 à 1000 ft
800 à 1500m
200 à 500 ft
< 800m
< 200 ft
Symboles :   Orages  Brouillard  Fortes neiges  Fortes précipitations  Vent > 20 kt
SIGMETs :   Divers  Orages  Givrage  Turbulence  Onde Orograph.  Cendres Volcan.






- Altitude de l'aérodrome : 2776 ft
- Code IATA : VLL


LEVD - Valladolid

DERNIER METAR :
  • 250730Z 12005KT 080V150 CAVOK 20/12 Q1013 NOSIG

METARs EXPIRÉS :
  • 250700Z 09005KT 060V120 CAVOK 19/13 Q1013 NOSIG
  • 250630Z 09005KT 060V120 CAVOK 17/12 Q1013 NOSIG
  • 250600Z 09003KT 060V120 CAVOK 16/13 Q1013 NOSIG
  • 250530Z 10004KT CAVOK 14/12 Q1012 NOSIG
  • 250500Z 09005KT CAVOK 13/11 Q1012 NOSIG
  • 250430Z AUTO 08005KT CAVOK 14/12 Q1012
  • 250400Z AUTO 09005KT CAVOK 14/12 Q1012
  • 250330Z AUTO 09006KT CAVOK 14/12 Q1013
  • 250300Z AUTO 10005KT CAVOK 14/12 Q1012

TAF AMD TAF LEVD
Valide du 25 à 06h jusqu'au 26 à 03h UTC


250638Z 2506/2603 09008KT CAVOK TX34/2513Z TN17/2603Z
PROB40
TEMPO 2514/2521 SHRA FEW030TCU



MET'MAP, la Météo Aéronautique d'un coup d'oeil ! - Copyright ORBIFLY Décembre 2007 - Disclaimer

ORBIFLY MET'MAP TEAM :

Programmation & Développement : Alexandra Zaïnal
Sur une idée originale de : Baudouin d'Aumeries
Soutien technique & logistique : Manuel Goepfert
Assistance : Marc-Olivier Méhu




SOURCES & CREDITS :

   NOAA